Time;durP1;ratioP1;P1;durP2;ratioP2;P2;SDS_P1;SDS_P2;PMS_P1;PMS_P2;Temp;Humidity;BMP_temperature;BMP_pressure;BME280_temperature;BME280_humidity;BME280_pressure;Samples;Min_cycle;Max_cycle;Signal;HPM_P1;HPM_P2
2021/08/06 00:00:25;;;;;;;8.53;6.23;;;15.20;99.90;;;;;;5018795;28;20194;-89
2021/08/06 00:02:51;;;;;;;8.93;6.40;;;15.30;99.90;;;;;;5035840;28;20667;-88
2021/08/06 00:09:13;;;;;;;10.20;6.97;;;15.10;99.90;;;;;;5014327;28;20693;-88
2021/08/06 00:11:39;;;;;;;12.03;6.77;;;15.00;99.90;;;;;;5017054;28;20662;-89
2021/08/06 00:14:06;;;;;;;8.20;6.50;;;15.00;99.90;;;;;;4970349;28;20193;-89
2021/08/06 00:16:32;;;;;;;7.70;5.73;;;15.10;99.90;;;;;;4993254;28;20222;-89
2021/08/06 00:18:58;;;;;;;9.43;6.93;;;15.10;99.90;;;;;;5031418;28;20345;-89
2021/08/06 00:21:24;;;;;;;8.77;6.50;;;15.20;99.90;;;;;;4996003;28;20247;-88
2021/08/06 00:23:54;;;;;;;9.87;6.80;;;15.20;99.90;;;;;;5012455;28;20222;-89
2021/08/06 00:26:46;;;;;;;11.10;7.23;;;15.20;99.90;;;;;;4994697;28;20225;-89
2021/08/06 00:29:12;;;;;;;7.97;5.87;;;15.20;99.90;;;;;;5022663;28;20222;-89
2021/08/06 00:31:38;;;;;;;9.77;6.23;;;15.20;99.90;;;;;;4990651;28;20219;-89
2021/08/06 00:34:05;;;;;;;9.40;7.27;;;15.20;99.90;;;;;;5010272;28;20254;-90
2021/08/06 00:36:31;;;;;;;8.33;6.03;;;15.20;99.90;;;;;;5007356;28;20211;-88
2021/08/06 00:38:57;;;;;;;10.43;7.33;;;15.00;99.90;;;;;;4982267;28;20218;-88
2021/08/06 00:41:22;;;;;;;8.70;6.67;;;14.90;99.90;;;;;;5017059;28;20229;-89
2021/08/06 00:44:06;;;;;;;9.07;6.33;;;14.80;99.90;;;;;;5016347;28;20225;-89
2021/08/06 00:46:33;;;;;;;8.33;6.50;;;14.70;99.90;;;;;;4999877;28;20222;-88
2021/08/06 00:48:59;;;;;;;9.03;6.93;;;14.60;99.90;;;;;;5000625;28;20190;-89
2021/08/06 00:51:25;;;;;;;9.77;6.33;;;14.60;99.90;;;;;;5038569;28;20331;-89
2021/08/06 00:53:52;;;;;;;10.73;7.33;;;14.60;99.90;;;;;;5019921;28;20699;-89
2021/08/06 00:56:18;;;;;;;9.27;6.13;;;14.50;99.90;;;;;;5006663;28;20226;-89
2021/08/06 00:58:44;;;;;;;8.40;5.97;;;14.50;99.90;;;;;;5020521;28;20185;-89
2021/08/06 01:01:10;;;;;;;8.73;6.77;;;14.50;99.90;;;;;;5020389;28;20613;-89
2021/08/06 01:04:01;;;;;;;10.00;6.77;;;14.50;99.90;;;;;;5004459;28;20179;-89
2021/08/06 01:10:34;;;;;;;12.00;7.03;;;14.60;99.90;;;;;;5046274;28;20223;-88
2021/08/06 01:13:02;;;;;;;9.67;7.17;;;14.70;99.90;;;;;;5028088;28;20218;-88
2021/08/06 01:15:29;;;;;;;9.77;6.90;;;14.80;99.90;;;;;;5053162;28;20186;-90
2021/08/06 01:17:59;;;;;;;8.33;6.00;;;14.80;99.90;;;;;;5019330;28;20237;-89
2021/08/06 01:20:37;;;;;;;9.83;6.90;;;14.70;99.90;;;;;;5031460;28;20189;-89
2021/08/06 01:23:22;;;;;;;12.33;7.67;;;14.70;99.90;;;;;;5057757;28;20190;-89
2021/08/06 01:25:51;;;;;;;11.00;7.20;;;14.60;99.90;;;;;;5035892;28;20731;-89
2021/08/06 01:28:24;;;;;;;10.13;7.10;;;14.80;99.90;;;;;;5051634;28;20194;-89
2021/08/06 01:30:51;;;;;;;7.70;5.80;;;14.90;99.90;;;;;;5034267;28;20190;-89
2021/08/06 01:33:18;;;;;;;9.87;6.53;;;15.00;99.90;;;;;;5053235;28;20179;-90
2021/08/06 01:35:44;;;;;;;9.93;6.23;;;15.10;99.90;;;;;;5023558;28;20210;-90
2021/08/06 01:38:12;;;;;;;9.33;6.83;;;15.20;99.90;;;;;;5032964;28;20283;-90
2021/08/06 01:40:52;;;;;;;8.53;6.20;;;15.30;99.90;;;;;;5023538;28;20268;-93
2021/08/06 01:43:34;;;;;;;10.73;7.40;;;15.40;99.90;;;;;;5030994;28;20236;-90
2021/08/06 01:46:42;;;;;;;12.00;6.93;;;15.50;99.90;;;;;;5049051;28;20222;-92
2021/08/06 01:49:20;;;;;;;11.57;7.53;;;15.50;99.90;;;;;;5030856;28;20351;-90
2021/08/06 01:51:54;;;;;;;9.60;6.70;;;15.60;99.90;;;;;;5029593;28;20182;-90
2021/08/06 01:54:22;;;;;;;11.10;6.97;;;15.60;99.90;;;;;;5027183;28;20206;-89
2021/08/06 01:56:49;;;;;;;19.10;8.20;;;15.70;99.90;;;;;;5018573;28;20253;-88
2021/08/06 01:59:16;;;;;;;12.43;7.40;;;15.70;99.90;;;;;;5030510;28;20218;-88
2021/08/06 02:01:43;;;;;;;12.17;8.07;;;15.70;99.90;;;;;;5051553;28;20218;-89
2021/08/06 02:04:09;;;;;;;10.90;7.47;;;15.70;99.90;;;;;;5033991;28;20304;-89
2021/08/06 02:06:35;;;;;;;12.50;8.17;;;15.80;99.90;;;;;;5033674;28;20234;-89
2021/08/06 02:09:01;;;;;;;11.90;7.73;;;15.80;99.90;;;;;;5051272;28;20228;-89
2021/08/06 02:11:28;;;;;;;11.53;6.90;;;15.90;99.90;;;;;;5051345;28;20209;-89
2021/08/06 02:13:54;;;;;;;11.47;7.10;;;15.90;99.90;;;;;;5034250;28;20221;-89
2021/08/06 02:16:23;;;;;;;12.77;7.20;;;16.00;99.90;;;;;;5033959;28;20229;-90
2021/08/06 02:18:50;;;;;;;16.67;8.63;;;16.00;99.90;;;;;;5017053;28;20195;-89
2021/08/06 02:21:20;;;;;;;13.63;7.20;;;16.00;99.90;;;;;;5025827;28;20647;-89
2021/08/06 02:23:49;;;;;;;10.03;6.20;;;16.00;99.90;;;;;;5027581;28;20250;-91
2021/08/06 02:26:17;;;;;;;10.10;7.57;;;16.00;99.90;;;;;;5027257;28;20228;-93
2021/08/06 02:28:44;;;;;;;11.40;6.93;;;16.00;99.90;;;;;;5029278;28;20248;-89
2021/08/06 02:31:13;;;;;;;11.17;7.93;;;16.00;99.90;;;;;;5027419;28;20236;-90
2021/08/06 02:33:42;;;;;;;11.77;7.67;;;16.00;99.90;;;;;;5026863;28;20186;-90
2021/08/06 02:36:08;;;;;;;13.23;7.63;;;15.90;99.90;;;;;;5008273;28;20190;-92
2021/08/06 02:38:34;;;;;;;11.53;7.40;;;15.90;99.90;;;;;;5010640;28;20233;-93
2021/08/06 02:41:01;;;;;;;9.80;6.90;;;15.90;99.90;;;;;;5020458;28;20320;-90
2021/08/06 02:43:26;;;;;;;14.57;7.40;;;15.90;99.90;;;;;;5027364;28;20316;-89
2021/08/06 02:45:52;;;;;;;10.87;7.30;;;15.90;99.90;;;;;;5026530;28;20212;-93
2021/08/06 02:48:18;;;;;;;10.00;7.10;;;15.90;99.90;;;;;;5012778;28;20201;-92
2021/08/06 02:50:44;;;;;;;10.37;7.47;;;16.00;99.90;;;;;;5027067;28;21016;-90
2021/08/06 02:53:11;;;;;;;14.13;7.67;;;16.00;99.90;;;;;;5018934;28;20299;-92
2021/08/06 02:55:37;;;;;;;13.17;7.70;;;16.00;99.90;;;;;;5027789;28;20218;-89
2021/08/06 02:58:05;;;;;;;12.00;7.73;;;16.00;99.90;;;;;;5026267;28;20236;-90
2021/08/06 03:00:31;;;;;;;12.17;8.07;;;16.00;99.90;;;;;;5011386;28;21228;-93
2021/08/06 03:02:56;;;;;;;9.23;6.37;;;16.00;99.90;;;;;;5009520;28;20225;-88
2021/08/06 03:05:23;;;;;;;11.93;7.90;;;15.90;99.90;;;;;;5009236;28;20225;-92
2021/08/06 03:07:53;;;;;;;10.37;7.70;;;15.90;99.90;;;;;;5026879;28;20632;-89
2021/08/06 03:10:20;;;;;;;14.63;8.93;;;15.90;99.90;;;;;;5037040;28;20672;-89
2021/08/06 03:12:46;;;;;;;11.63;7.00;;;15.90;99.90;;;;;;5012687;28;20190;-90
2021/08/06 03:15:13;;;;;;;10.03;7.23;;;15.90;99.90;;;;;;5046332;28;20655;-93
2021/08/06 03:17:41;;;;;;;12.07;9.13;;;15.90;99.90;;;;;;5028519;28;20618;-89
2021/08/06 03:20:09;;;;;;;11.03;6.40;;;15.90;99.90;;;;;;5024500;28;20574;-89
2021/08/06 03:22:36;;;;;;;13.37;7.40;;;15.80;99.90;;;;;;5030096;28;20222;-90
2021/08/06 03:25:02;;;;;;;11.10;7.40;;;15.90;99.90;;;;;;5023020;28;20229;-89
2021/08/06 03:27:28;;;;;;;10.93;7.30;;;15.80;99.90;;;;;;5045648;28;20200;-89
2021/08/06 03:29:54;;;;;;;13.63;6.70;;;15.90;99.90;;;;;;5022080;28;20221;-90
2021/08/06 03:32:19;;;;;;;10.63;6.97;;;15.90;99.90;;;;;;5012105;28;20225;-91
2021/08/06 03:34:45;;;;;;;14.77;8.40;;;15.90;99.90;;;;;;5024217;28;20232;-90
2021/08/06 03:37:11;;;;;;;12.30;6.67;;;15.90;99.90;;;;;;5011408;28;20241;-94
2021/08/06 03:39:36;;;;;;;10.53;7.40;;;15.90;99.90;;;;;;5010945;28;20270;-90
2021/08/06 03:42:02;;;;;;;13.10;8.93;;;15.90;99.90;;;;;;5034238;28;20640;-92
2021/08/06 03:44:28;;;;;;;10.10;6.30;;;16.00;99.90;;;;;;5016528;28;20253;-92
2021/08/06 03:46:54;;;;;;;12.37;7.07;;;16.00;99.90;;;;;;5028391;28;20629;-89
2021/08/06 03:49:20;;;;;;;18.27;8.00;;;16.00;99.90;;;;;;5014223;28;20939;-89
2021/08/06 03:51:45;;;;;;;12.13;7.07;;;16.00;99.90;;;;;;5013927;28;20243;-90
2021/08/06 03:54:11;;;;;;;12.10;6.73;;;16.10;99.90;;;;;;5015451;28;20198;-91
2021/08/06 03:56:37;;;;;;;9.97;6.73;;;16.10;99.90;;;;;;5013564;28;21316;-90
2021/08/06 03:59:02;;;;;;;11.17;7.37;;;16.20;99.90;;;;;;5012467;28;20283;-89
2021/08/06 04:01:28;;;;;;;11.47;7.03;;;16.20;99.90;;;;;;5028145;28;21004;-92
2021/08/06 04:03:54;;;;;;;11.20;6.97;;;16.30;99.90;;;;;;5028164;28;20186;-90
2021/08/06 04:06:20;;;;;;;11.87;7.60;;;16.30;99.90;;;;;;5026277;28;20234;-89
2021/08/06 04:08:45;;;;;;;14.40;7.57;;;16.30;99.90;;;;;;5011925;28;20766;-90
2021/08/06 04:11:11;;;;;;;11.63;7.27;;;16.40;99.90;;;;;;5009626;28;20214;-91
2021/08/06 04:13:37;;;;;;;9.53;7.00;;;16.40;99.90;;;;;;5011274;28;20258;-90
2021/08/06 04:16:03;;;;;;;11.30;6.97;;;16.40;99.90;;;;;;5014051;28;20241;-89
2021/08/06 04:18:28;;;;;;;10.87;6.93;;;16.40;99.90;;;;;;5014697;28;21012;-90
2021/08/06 04:20:54;;;;;;;9.90;7.17;;;16.40;99.90;;;;;;5029200;28;20214;-90
2021/08/06 04:23:20;;;;;;;11.30;6.50;;;16.40;99.90;;;;;;5030147;28;20217;-93
2021/08/06 04:25:46;;;;;;;8.17;6.13;;;16.50;99.90;;;;;;5013411;28;20213;-91
2021/08/06 04:28:12;;;;;;;8.63;6.10;;;16.50;99.90;;;;;;5048274;28;20690;-90
2021/08/06 04:30:37;;;;;;;9.03;6.60;;;16.50;99.90;;;;;;5015062;28;20598;-90
2021/08/06 04:33:03;;;;;;;11.67;7.10;;;16.50;99.90;;;;;;5014882;28;20655;-91
2021/08/06 04:35:29;;;;;;;8.33;6.33;;;16.50;99.90;;;;;;5031234;28;20221;-91
2021/08/06 04:37:56;;;;;;;9.67;7.07;;;16.60;99.90;;;;;;5012032;28;20240;-92
2021/08/06 04:40:22;;;;;;;10.80;6.97;;;16.60;99.90;;;;;;5014677;28;20218;-90
2021/08/06 04:42:49;;;;;;;12.33;7.50;;;16.60;99.90;;;;;;5031063;28;20602;-90
2021/08/06 04:45:15;;;;;;;10.13;6.83;;;16.60;99.90;;;;;;5025953;28;20178;-89
2021/08/06 04:47:48;;;;;;;16.50;6.83;;;16.60;99.90;;;;;;5031914;28;20587;-89
2021/08/06 04:50:16;;;;;;;9.73;6.87;;;16.70;99.90;;;;;;5029538;28;20224;-91
2021/08/06 04:52:42;;;;;;;9.33;6.17;;;16.70;99.90;;;;;;5028262;28;20213;-90
2021/08/06 04:55:09;;;;;;;8.43;6.13;;;16.70;99.90;;;;;;5014130;28;20278;-92
2021/08/06 04:57:36;;;;;;;10.17;6.60;;;16.70;99.90;;;;;;5046726;28;20206;-91
2021/08/06 05:00:03;;;;;;;13.60;6.03;;;16.70;99.90;;;;;;5029212;28;20229;-92
2021/08/06 05:02:29;;;;;;;10.47;6.53;;;16.80;99.90;;;;;;5027528;28;20304;-91
2021/08/06 05:04:55;;;;;;;7.73;5.67;;;16.80;99.90;;;;;;5011529;28;20454;-91
2021/08/06 05:07:20;;;;;;;10.40;7.23;;;16.90;99.90;;;;;;5027225;28;20709;-92
2021/08/06 05:09:47;;;;;;;10.97;7.13;;;16.90;99.90;;;;;;5028743;28;20198;-89
2021/08/06 05:12:13;;;;;;;9.83;6.87;;;16.90;99.90;;;;;;5028464;28;20212;-91
2021/08/06 05:14:40;;;;;;;10.90;6.30;;;16.90;99.90;;;;;;5027843;28;20222;-90
2021/08/06 05:17:07;;;;;;;11.07;6.63;;;16.90;99.90;;;;;;5029134;28;20237;-90
2021/08/06 05:19:33;;;;;;;9.93;5.43;;;16.90;99.90;;;;;;5029560;28;20287;-95
2021/08/06 05:21:58;;;;;;;10.13;7.33;;;16.90;99.90;;;;;;5012426;28;20677;-90
2021/08/06 05:24:24;;;;;;;8.83;6.43;;;16.90;99.90;;;;;;4989207;28;20622;-90
2021/08/06 05:26:50;;;;;;;9.87;7.23;;;16.90;99.90;;;;;;5029119;28;20765;-92
2021/08/06 05:29:16;;;;;;;10.20;5.80;;;16.90;99.90;;;;;;5014167;28;20240;-89
2021/08/06 05:31:41;;;;;;;8.30;6.20;;;16.90;99.90;;;;;;5018414;28;20240;-94
2021/08/06 05:34:07;;;;;;;6.83;5.70;;;16.90;99.90;;;;;;5032699;28;20292;-89
2021/08/06 05:36:33;;;;;;;9.80;6.90;;;17.00;99.90;;;;;;5032942;28;20686;-92
2021/08/06 05:38:59;;;;;;;8.63;5.90;;;17.10;99.90;;;;;;5035419;28;20271;-94
2021/08/06 05:41:25;;;;;;;8.40;5.63;;;17.10;99.90;;;;;;5039353;28;20241;-95
2021/08/06 05:43:51;;;;;;;5.80;4.37;;;17.10;99.90;;;;;;5034948;28;20236;-95
2021/08/06 05:46:16;;;;;;;10.97;6.53;;;17.10;99.90;;;;;;5010458;28;20687;-95
2021/08/06 05:48:42;;;;;;;10.70;6.53;;;17.10;99.90;;;;;;5045504;28;20190;-95
2021/08/06 05:51:10;;;;;;;11.43;6.77;;;17.00;99.90;;;;;;5028666;28;20258;-94
2021/08/06 05:53:38;;;;;;;7.83;6.37;;;17.10;99.90;;;;;;5044243;28;20222;-95
2021/08/06 05:56:07;;;;;;;10.87;6.43;;;17.10;99.90;;;;;;5026890;28;20305;-95
2021/08/06 05:58:33;;;;;;;7.90;6.00;;;17.10;99.90;;;;;;5018498;28;20244;-95
2021/08/06 06:00:58;;;;;;;9.80;6.00;;;17.20;99.90;;;;;;5023508;28;20297;-92
2021/08/06 06:03:25;;;;;;;9.33;6.13;;;17.20;99.90;;;;;;5011038;28;20606;-95
2021/08/06 06:05:57;;;;;;;8.83;5.83;;;17.30;99.90;;;;;;5043852;28;20252;-95
2021/08/06 06:08:23;;;;;;;11.03;6.87;;;17.40;99.90;;;;;;5030479;28;20222;-93
2021/08/06 06:10:49;;;;;;;11.10;6.73;;;17.50;99.90;;;;;;5002223;28;20259;-95
2021/08/06 06:13:36;;;;;;;8.77;5.20;;;18.10;99.90;;;;;;5015608;28;20221;-95
2021/08/06 06:16:05;;;;;;;9.13;6.13;;;18.40;99.90;;;;;;5024385;28;20221;-95
2021/08/06 06:18:33;;;;;;;7.33;5.33;;;18.20;99.90;;;;;;5017094;28;20202;-95
2021/08/06 06:21:02;;;;;;;8.53;5.87;;;18.10;99.90;;;;;;5026742;28;20214;-95
2021/08/06 06:23:28;;;;;;;7.07;5.23;;;18.10;99.90;;;;;;5025290;28;20226;-93
2021/08/06 06:25:56;;;;;;;10.43;4.80;;;18.20;99.90;;;;;;5026656;28;20721;-96
2021/08/06 06:28:33;;;;;;;6.97;4.97;;;18.30;99.90;;;;;;5015448;28;20226;-96
2021/08/06 06:31:03;;;;;;;8.30;5.13;;;18.10;99.90;;;;;;5014788;28;20221;-96
2021/08/06 06:33:32;;;;;;;6.57;5.00;;;18.10;99.90;;;;;;5027235;28;20224;-93
2021/08/06 06:35:58;;;;;;;6.57;4.63;;;18.00;99.90;;;;;;5044017;28;20231;-92
2021/08/06 06:38:24;;;;;;;7.50;4.73;;;18.00;99.90;;;;;;5043060;28;20317;-94
2021/08/06 06:40:53;;;;;;;10.73;5.33;;;18.00;99.90;;;;;;5012063;28;20210;-94
2021/08/06 06:43:21;;;;;;;8.13;4.77;;;18.00;99.90;;;;;;5016760;28;20717;-94
2021/08/06 06:45:48;;;;;;;6.37;4.57;;;18.00;99.90;;;;;;5044748;28;20677;-96
2021/08/06 06:48:17;;;;;;;6.93;5.10;;;18.10;99.90;;;;;;5027119;28;20778;-95
2021/08/06 06:50:43;;;;;;;7.37;4.47;;;18.10;99.90;;;;;;5020281;28;20213;-95
2021/08/06 06:53:18;;;;;;;6.23;4.50;;;18.10;99.90;;;;;;5023101;28;21149;-95
2021/08/06 06:55:46;;;;;;;8.43;5.17;;;18.20;99.90;;;;;;5025629;28;20215;-96
2021/08/06 06:58:18;;;;;;;8.43;4.93;;;18.30;99.90;;;;;;5012734;28;20237;-94
2021/08/06 07:00:46;;;;;;;8.37;4.03;;;18.30;99.90;;;;;;5024697;28;20296;-94
2021/08/06 07:03:12;;;;;;;6.40;4.57;;;18.40;99.90;;;;;;5007994;28;20280;-93
2021/08/06 07:05:41;;;;;;;6.60;4.53;;;18.30;99.90;;;;;;5021597;28;20245;-95
2021/08/06 07:08:09;;;;;;;5.53;4.47;;;18.40;99.90;;;;;;4982139;28;20760;-95
2021/08/06 07:10:43;;;;;;;7.87;5.40;;;18.30;99.90;;;;;;4978660;28;20230;-94
2021/08/06 07:13:10;;;;;;;5.43;4.50;;;18.30;99.90;;;;;;5002002;28;20311;-95
2021/08/06 07:15:38;;;;;;;7.07;4.13;;;18.20;99.90;;;;;;5006644;28;20739;-95
2021/08/06 07:18:04;;;;;;;5.07;3.83;;;18.30;99.90;;;;;;5018411;28;21541;-95
2021/08/06 07:20:33;;;;;;;4.87;3.37;;;18.20;99.90;;;;;;5003916;28;20219;-96
2021/08/06 07:22:59;;;;;;;4.87;3.63;;;18.20;99.90;;;;;;4990999;28;21045;-95
2021/08/06 07:25:55;;;;;;;;;;;;;;;;;;;;;
2021/08/06 07:28:37;;;;;;;6.13;4.10;;;18.30;99.90;;;;;;5019378;28;20727;-96
2021/08/06 07:31:07;;;;;;;6.13;3.67;;;18.30;99.90;;;;;;5002486;28;20228;-95
2021/08/06 07:33:43;;;;;;;6.63;3.90;;;18.10;99.90;;;;;;5009533;28;20663;-96
2021/08/06 07:36:29;;;;;;;8.80;3.53;;;18.20;99.90;;;;;;5018125;28;20676;-95
2021/08/06 07:38:57;;;;;;;4.93;3.83;;;18.30;99.90;;;;;;5004063;28;20215;-96
2021/08/06 07:41:26;;;;;;;5.23;3.37;;;18.30;99.90;;;;;;5006923;28;20215;-96
2021/08/06 07:43:58;;;;;;;5.83;4.40;;;18.40;99.90;;;;;;5014958;28;20213;-96
2021/08/06 07:46:47;;;;;;;8.27;4.67;;;18.40;99.90;;;;;;4978937;28;20219;-96
2021/08/06 07:49:15;;;;;;;8.47;4.60;;;18.40;99.90;;;;;;5003317;28;21154;-95
2021/08/06 07:51:44;;;;;;;6.30;4.60;;;18.50;99.90;;;;;;5017498;28;20194;-95
2021/08/06 07:54:17;;;;;;;5.80;4.50;;;18.50;99.90;;;;;;5012604;28;20197;-94
2021/08/06 07:56:45;;;;;;;5.37;4.40;;;18.60;99.90;;;;;;5005482;28;20265;-95
2021/08/06 07:59:14;;;;;;;8.27;5.20;;;18.60;99.90;;;;;;5013343;28;20305;-93
2021/08/06 08:01:43;;;;;;;5.53;4.00;;;18.70;99.90;;;;;;4991303;28;20226;-95
2021/08/06 08:04:09;;;;;;;6.13;4.30;;;18.90;99.90;;;;;;4975115;28;20230;-95
2021/08/06 08:06:34;;;;;;;8.47;4.20;;;19.00;99.90;;;;;;4999075;28;20222;-95
2021/08/06 08:09:03;;;;;;;5.83;4.27;;;19.20;99.90;;;;;;5012549;28;20225;-96
2021/08/06 08:11:31;;;;;;;9.40;4.93;;;19.50;99.90;;;;;;5001938;28;20242;-95
2021/08/06 08:13:59;;;;;;;4.53;3.87;;;19.60;99.90;;;;;;5000563;28;20222;-96
2021/08/06 08:16:38;;;;;;;;;;;;;;;;;;;;;
2021/08/06 08:19:07;;;;;;;4.60;3.70;;;20.00;99.90;;;;;;5018778;28;20245;-94
2021/08/06 08:21:32;;;;;;;3.77;3.20;;;20.30;99.90;;;;;;5002132;28;20204;-92
2021/08/06 08:23:59;;;;;;;4.23;3.23;;;20.10;99.90;;;;;;5015048;28;20369;-92
2021/08/06 08:26:24;;;;;;;4.00;3.20;;;20.10;99.90;;;;;;5001465;28;20219;-94
2021/08/06 08:28:52;;;;;;;5.00;3.87;;;20.10;99.90;;;;;;4995773;28;20702;-95
2021/08/06 08:31:38;;;;;;;4.50;3.13;;;20.50;99.90;;;;;;5001982;28;20309;-96
2021/08/06 08:34:07;;;;;;;4.00;3.57;;;21.00;99.90;;;;;;4991249;28;20261;-94
2021/08/06 08:36:36;;;;;;;4.27;3.77;;;21.30;99.90;;;;;;5003140;28;20522;-96
2021/08/06 08:39:05;;;;;;;4.73;3.63;;;21.60;99.90;;;;;;5016876;28;20230;-96
2021/08/06 08:41:31;;;;;;;4.17;3.17;;;21.60;99.90;;;;;;4998733;28;20307;-93
2021/08/06 08:44:00;;;;;;;4.03;2.93;;;21.80;99.90;;;;;;4998514;28;20237;-95
2021/08/06 08:46:29;;;;;;;4.67;3.43;;;21.50;99.90;;;;;;5000915;28;20570;-95
2021/08/06 08:49:07;;;;;;;10.47;4.77;;;21.20;99.90;;;;;;5026362;28;20174;-96
2021/08/06 08:51:35;;;;;;;8.00;4.80;;;21.00;99.90;;;;;;5025145;28;20199;-94
2021/08/06 08:54:05;;;;;;;8.73;4.50;;;20.30;99.90;;;;;;5018260;28;20230;-95
2021/08/06 08:56:31;;;;;;;7.20;3.93;;;20.00;99.90;;;;;;5011759;28;20239;-95
2021/08/06 08:58:59;;;;;;;7.97;4.03;;;20.00;99.90;;;;;;4992710;28;20583;-95
2021/08/06 09:01:26;;;;;;;6.80;4.43;;;20.00;99.90;;;;;;5016597;28;20932;-93
2021/08/06 09:03:52;;;;;;;6.80;4.30;;;20.40;99.90;;;;;;5002225;28;20225;-94
2021/08/06 09:06:18;;;;;;;6.13;4.07;;;20.90;99.90;;;;;;5012551;28;20237;-95
2021/08/06 09:08:44;;;;;;;6.57;4.33;;;21.00;99.90;;;;;;5012325;28;20275;-92
2021/08/06 09:11:32;;;;;;;4.87;3.43;;;21.40;99.90;;;;;;5020007;28;20234;-93
2021/08/06 09:14:24;;;;;;;4.90;3.23;;;22.00;99.90;;;;;;5005879;28;20307;-92
2021/08/06 09:17:10;;;;;;;4.50;3.77;;;22.10;99.90;;;;;;5039483;28;20229;-89
2021/08/06 09:19:53;;;;;;;5.03;3.97;;;22.10;99.90;;;;;;5023064;28;20225;-91
2021/08/06 09:22:26;;;;;;;5.20;3.93;;;21.80;99.90;;;;;;5025116;28;20218;-95
2021/08/06 09:25:18;;;;;;;3.47;3.17;;;21.60;99.90;;;;;;5025037;28;20710;-93
2021/08/06 09:27:50;;;;;;;7.07;3.63;;;21.20;99.90;;;;;;5041000;28;20295;-94
2021/08/06 09:30:36;;;;;;;3.47;3.17;;;21.00;99.90;;;;;;5027392;28;20182;-93
2021/08/06 09:33:03;;;;;;;8.60;4.40;;;21.70;99.90;;;;;;5024295;28;20225;-90
2021/08/06 09:35:32;;;;;;;4.83;3.80;;;21.90;99.90;;;;;;5008865;28;20214;-92
2021/08/06 09:37:59;;;;;;;4.80;4.07;;;21.90;99.90;;;;;;5037427;28;20303;-95
2021/08/06 09:40:30;;;;;;;6.20;4.63;;;21.40;99.90;;;;;;5021933;28;21100;-93
2021/08/06 09:43:04;;;;;;;6.47;4.47;;;21.20;99.90;;;;;;5039157;28;20214;-92
2021/08/06 09:45:39;;;;;;;5.97;4.63;;;21.20;99.90;;;;;;5022012;28;20202;-92
2021/08/06 09:48:05;;;;;;;7.73;5.23;;;21.20;99.90;;;;;;5021865;28;20272;-91
2021/08/06 09:50:40;;;;;;;6.30;4.00;;;21.30;99.90;;;;;;5021686;28;20240;-91
2021/08/06 09:53:06;;;;;;;7.53;4.97;;;21.10;99.90;;;;;;5021101;28;20278;-93
2021/08/06 09:55:37;;;;;;;6.13;4.77;;;21.00;99.90;;;;;;5038761;28;20686;-88
2021/08/06 09:58:10;;;;;;;6.67;4.97;;;20.80;99.90;;;;;;5038555;28;20238;-93
2021/08/06 10:00:42;;;;;;;5.93;5.10;;;20.70;99.90;;;;;;5028759;28;20178;-90
2021/08/06 10:03:22;;;;;;;6.60;5.27;;;21.30;99.90;;;;;;5011588;28;20231;-92
2021/08/06 10:06:05;;;;;;;6.50;3.87;;;22.30;99.90;;;;;;5002155;28;20213;-88
2021/08/06 10:08:31;;;;;;;7.27;3.77;;;23.40;99.90;;;;;;5004303;28;20215;-93
2021/08/06 10:10:57;;;;;;;5.77;4.10;;;24.10;99.90;;;;;;4995680;28;20273;-92
2021/08/06 10:13:23;;;;;;;4.20;3.47;;;24.20;99.90;;;;;;4999641;28;20415;-90
2021/08/06 10:15:49;;;;;;;4.45;3.95;;;23.90;99.90;;;;;;4991382;28;20187;-94
2021/08/06 10:18:14;;;;;;;6.03;3.97;;;24.60;99.90;;;;;;5005739;28;20214;-89
2021/08/06 10:20:40;;;;;;;5.60;4.07;;;25.90;99.90;;;;;;4974750;28;20219;-89
2021/08/06 10:23:06;;;;;;;5.40;3.80;;;27.00;99.90;;;;;;4991160;28;20222;-89
2021/08/06 10:25:32;;;;;;;4.60;2.38;;;26.90;99.90;;;;;;4972722;28;20218;-92
2021/08/06 10:27:58;;;;;;;7.65;4.32;;;26.40;99.90;;;;;;4991743;28;20231;-91
2021/08/06 10:30:26;;;;;;;7.70;4.38;;;25.60;99.90;;;;;;4982043;28;20192;-91
2021/08/06 10:33:12;;;;;;;5.05;4.32;;;25.60;99.90;;;;;;4991211;28;20211;-90
2021/08/06 10:36:07;;;;;;;6.30;4.65;;;25.90;99.90;;;;;;5012001;28;20223;-90
2021/08/06 10:38:44;;;;;;;5.40;4.38;;;25.40;99.90;;;;;;4983643;28;20657;-91
2021/08/06 10:41:20;;;;;;;5.43;3.38;;;26.10;99.90;;;;;;4993801;28;20552;-94
2021/08/06 10:44:06;;;;;;;5.68;3.97;;;26.20;99.90;;;;;;4974570;28;20215;-90
2021/08/06 10:46:51;;;;;;;4.63;3.60;;;26.20;99.90;;;;;;4981973;28;20245;-90
2021/08/06 10:49:18;;;;;;;5.28;2.97;;;26.70;99.90;;;;;;5008221;28;20641;-91
2021/08/06 10:51:44;;;;;;;4.05;3.50;;;25.60;99.90;;;;;;5019069;28;20756;-91
2021/08/06 10:54:25;;;;;;;4.35;3.08;;;24.80;99.90;;;;;;5002856;28;20185;-90
2021/08/06 10:57:20;;;;;;;5.28;3.60;;;25.10;99.90;;;;;;5006269;28;20260;-89
2021/08/06 10:59:47;;;;;;;3.80;3.50;;;24.40;99.90;;;;;;4993904;28;20738;-93
2021/08/06 11:02:41;;;;;;;5.28;3.13;;;24.30;99.90;;;;;;4990783;28;20270;-91
2021/08/06 11:05:44;;;;;;;4.70;3.65;;;24.50;99.90;;;;;;5010389;28;20276;-90
2021/08/06 11:08:45;;;;;;;8.23;3.78;;;24.70;99.90;;;;;;4918777;29;20614;-92
2021/08/06 11:11:40;;;;;;;5.88;3.88;;;24.00;99.90;;;;;;5015952;28;20223;-90
2021/08/06 11:14:05;;;;;;;5.07;3.95;;;23.10;99.90;;;;;;5021874;28;20246;-91
2021/08/06 11:16:31;;;;;;;4.07;3.50;;;23.00;99.90;;;;;;5003786;28;21152;-91
2021/08/06 11:18:57;;;;;;;5.50;3.90;;;23.50;99.90;;;;;;5000992;28;20695;-92
2021/08/06 11:21:23;;;;;;;4.47;3.60;;;24.20;99.90;;;;;;4999684;28;20282;-93
2021/08/06 11:24:00;;;;;;;7.07;4.38;;;24.10;99.90;;;;;;4983752;28;20220;-90
2021/08/06 11:26:26;;;;;;;3.80;3.42;;;23.80;99.90;;;;;;5001125;28;20571;-91
2021/08/06 11:28:55;;;;;;;4.45;3.22;;;23.50;99.90;;;;;;4984558;28;20218;-89
2021/08/06 11:31:21;;;;;;;4.35;3.00;;;22.90;99.90;;;;;;4965343;28;20239;-90
2021/08/06 11:34:04;;;;;;;6.72;3.40;;;22.50;99.90;;;;;;4997036;28;20215;-91
2021/08/06 11:36:30;;;;;;;5.68;3.13;;;22.20;99.90;;;;;;4999478;28;20452;-90
2021/08/06 11:39:02;;;;;;;4.38;3.50;;;22.20;99.90;;;;;;5013088;28;20227;-89
2021/08/06 11:41:30;;;;;;;4.57;3.42;;;22.30;99.90;;;;;;4998732;28;20229;-90
2021/08/06 11:43:57;;;;;;;2.63;2.40;;;22.30;99.90;;;;;;5018047;28;20300;-92
2021/08/06 11:46:23;;;;;;;4.33;2.90;;;22.20;99.90;;;;;;5001935;28;20302;-93
2021/08/06 11:48:51;;;;;;;4.73;3.23;;;22.10;99.90;;;;;;5018236;28;20227;-89
2021/08/06 11:51:18;;;;;;;7.37;3.37;;;22.00;99.90;;;;;;5001055;28;20274;-91
2021/08/06 11:53:44;;;;;;;3.77;2.70;;;21.90;99.90;;;;;;5010289;28;20249;-94
2021/08/06 11:56:18;;;;;;;4.40;3.07;;;21.90;99.90;;;;;;4966110;28;20301;-91
2021/08/06 11:58:46;;;;;;;4.27;3.50;;;21.90;99.90;;;;;;5002119;28;20293;-93
2021/08/06 12:01:19;;;;;;;4.07;3.67;;;21.80;99.90;;;;;;5017748;28;20230;-92
2021/08/06 12:03:47;;;;;;;6.07;3.30;;;22.00;99.90;;;;;;5019133;28;20186;-92
2021/08/06 12:06:16;;;;;;;6.50;3.83;;;22.10;99.90;;;;;;5023891;28;20326;-92
2021/08/06 12:08:44;;;;;;;5.43;3.13;;;22.10;99.90;;;;;;5022035;28;20225;-91
2021/08/06 12:11:15;;;;;;;5.10;3.63;;;21.90;99.90;;;;;;5039081;28;20530;-92
2021/08/06 12:13:51;;;;;;;4.37;3.23;;;22.30;99.90;;;;;;5021310;28;20231;-93
2021/08/06 12:16:22;;;;;;;4.97;3.77;;;22.70;99.90;;;;;;5038539;28;20209;-92
2021/08/06 12:19:01;;;;;;;5.83;3.33;;;22.90;99.90;;;;;;5020817;28;20264;-90
2021/08/06 12:21:34;;;;;;;3.37;3.07;;;22.70;99.90;;;;;;5039605;28;20201;-90
2021/08/06 12:24:11;;;;;;;3.17;2.67;;;22.40;99.90;;;;;;5020918;28;20218;-90
2021/08/06 12:26:51;;;;;;;5.20;3.53;;;21.90;99.90;;;;;;5036773;28;20210;-88
2021/08/06 12:29:27;;;;;;;4.53;3.30;;;22.10;99.90;;;;;;5019089;28;20221;-91
2021/08/06 12:32:10;;;;;;;4.30;3.40;;;22.30;99.90;;;;;;5037024;28;20213;-89
2021/08/06 12:34:38;;;;;;;3.80;3.30;;;22.30;99.90;;;;;;5020707;28;20209;-89
2021/08/06 12:37:32;;;;;;;3.80;3.10;;;22.20;99.90;;;;;;5027284;28;20687;-91
2021/08/06 12:39:57;;;;;;;3.23;2.90;;;21.90;99.90;;;;;;5016091;28;20226;-91
2021/08/06 12:42:29;;;;;;;6.17;3.37;;;21.60;99.90;;;;;;5004425;28;20411;-91
2021/08/06 12:45:07;;;;;;;4.50;2.80;;;21.90;99.90;;;;;;5019853;28;20301;-90
2021/08/06 12:47:42;;;;;;;7.57;3.50;;;22.40;99.90;;;;;;5036805;28;20295;-92
2021/08/06 12:50:09;;;;;;;3.23;2.40;;;22.90;99.90;;;;;;5037697;28;20243;-90
2021/08/06 12:52:37;;;;;;;4.63;2.57;;;22.90;99.90;;;;;;5005008;28;20704;-93
2021/08/06 12:55:03;;;;;;;3.50;2.10;;;23.30;99.90;;;;;;5019420;28;20217;-94
2021/08/06 12:57:42;;;;;;;2.67;1.87;;;23.50;99.90;;;;;;5018915;28;20218;-91
2021/08/06 13:00:24;;;;;;;3.27;2.00;;;23.20;99.90;;;;;;5011076;28;20253;-94
2021/08/06 13:03:02;;;;;;;3.35;2.42;;;22.90;99.90;;;;;;5005377;28;20228;-91
2021/08/06 13:05:30;;;;;;;2.60;2.40;;;23.00;99.90;;;;;;5019486;28;20206;-90
2021/08/06 13:08:13;;;;;;;4.10;2.60;;;23.20;99.90;;;;;;5019502;28;20230;-92